Time;durP1;ratioP1;P1;durP2;ratioP2;P2;SDS_P1;SDS_P2;PMS_P1;PMS_P2;Temp;Humidity;BMP_temperature;BMP_pressure;BME280_temperature;BME280_humidity;BME280_pressure;Samples;Min_cycle;Max_cycle;Signal;HPM_P1;HPM_P2
2021/03/21 00:01:09;;;;;;;21.90;10.45;;;;;;;;;;4965284;28;20051;-82
2021/03/21 00:03:37;;;;;;;21.42;10.20;;;;;;;;;;4982360;28;20058;-83
2021/03/21 00:06:05;;;;;;;32.45;13.27;;;;;;;;;;4949567;28;20046;-84
2021/03/21 00:08:34;;;;;;;24.85;12.57;;;;;;;;;;4950669;28;20042;-84
2021/03/21 00:11:05;;;;;;;27.38;13.00;;;9.10;99.90;;;;;;4984916;28;20058;-86
2021/03/21 00:13:33;;;;;;;24.15;13.40;;;9.10;99.90;;;;;;4984303;28;20057;-84
2021/03/21 00:16:03;;;;;;;21.40;11.75;;;9.00;99.90;;;;;;4987590;28;20057;-85
2021/03/21 00:18:33;;;;;;;25.00;13.23;;;9.10;99.90;;;;;;4955296;28;20453;-84
2021/03/21 00:21:01;;;;;;;23.30;12.65;;;9.30;99.90;;;;;;4967963;28;20066;-85
2021/03/21 00:23:29;;;;;;;24.27;12.73;;;;;;;;;;4988193;28;20053;-84
2021/03/21 00:25:56;;;;;;;25.95;13.18;;;;;;;;;;4969026;28;20053;-85
2021/03/21 00:28:27;;;;;;;25.17;13.15;;;8.90;99.90;;;;;;4989527;28;20053;-84
2021/03/21 00:30:55;;;;;;;23.13;13.00;;;;;;;;;;4960179;28;20053;-83
2021/03/21 00:33:26;;;;;;;24.20;14.52;;;9.20;99.90;;;;;;4970936;28;20526;-85
2021/03/21 00:35:54;;;;;;;25.83;12.50;;;9.00;99.90;;;;;;4957574;28;20417;-85
2021/03/21 00:38:34;;;;;;;21.40;10.90;;;9.00;99.90;;;;;;4985060;28;20054;-84
2021/03/21 00:41:03;;;;;;;23.05;12.35;;;8.90;99.90;;;;;;4942045;28;20061;-87
2021/03/21 00:43:31;;;;;;;20.10;10.30;;;;;;;;;;4961792;28;20050;-84
2021/03/21 00:46:00;;;;;;;16.52;9.20;;;;;;;;;;4990894;28;20053;-85
2021/03/21 00:48:32;;;;;;;21.40;10.65;;;8.90;99.90;;;;;;4991201;28;20063;-84
2021/03/21 00:51:00;;;;;;;18.15;10.10;;;;;;;;;;4970096;28;20069;-84
2021/03/21 00:53:27;;;;;;;15.27;8.55;;;;;;;;;;4971454;28;20059;-85
2021/03/21 00:55:55;;;;;;;17.58;9.45;;;;;;;;;;4948278;28;20047;-85
2021/03/21 00:58:23;;;;;;;17.52;9.95;;;;;;;;;;4989793;28;20058;-85
2021/03/21 01:00:53;;;;;;;16.00;9.93;;;9.00;99.90;;;;;;4965814;28;20051;-85
2021/03/21 01:03:21;;;;;;;19.77;9.18;;;8.90;99.90;;;;;;4956452;28;20134;-85
2021/03/21 01:05:49;;;;;;;21.20;10.52;;;;;;;;;;4973099;28;20480;-85
2021/03/21 01:08:21;;;;;;;18.30;9.32;;;8.80;99.90;;;;;;4975282;28;20232;-86
2021/03/21 01:10:53;;;;;;;18.92;10.57;;;8.80;99.90;;;;;;4969727;28;20046;-84
2021/03/21 01:13:22;;;;;;;18.80;9.32;;;10.60;99.90;;;;;;4960433;28;20057;-84
2021/03/21 01:15:50;;;;;;;19.75;7.45;;;;;;;;;;4965444;28;20416;-84
2021/03/21 01:18:26;;;;;;;17.80;9.35;;;8.80;99.90;;;;;;4964355;28;20410;-83
2021/03/21 01:20:54;;;;;;;14.65;7.60;;;8.80;99.90;;;;;;4991377;28;20062;-84
2021/03/21 01:23:22;;;;;;;15.82;8.27;;;;;;;;;;4984649;28;20069;-84
2021/03/21 01:25:50;;;;;;;13.05;8.15;;;8.90;99.90;;;;;;4999702;28;20065;-84
2021/03/21 01:28:29;;;;;;;14.23;8.65;;;8.90;99.90;;;;;;4999905;28;20611;-84
2021/03/21 01:30:59;;;;;;;21.35;9.57;;;8.80;99.90;;;;;;4984529;28;20051;-86
2021/03/21 01:33:29;;;;;;;17.40;8.70;;;8.80;99.90;;;;;;4990298;28;20064;-83
2021/03/21 01:35:56;;;;;;;13.80;7.50;;;;;;;;;;4996737;28;20061;-83
2021/03/21 01:38:24;;;;;;;12.90;7.22;;;8.60;99.90;;;;;;4960924;28;20406;-84
2021/03/21 01:40:59;;;;;;;15.73;8.32;;;8.90;99.90;;;;;;4988534;28;20066;-84
2021/03/21 01:43:31;;;;;;;12.18;7.18;;;8.80;99.90;;;;;;4948320;28;20055;-84
2021/03/21 01:45:58;;;;;;;13.57;9.20;;;;;;;;;;4982006;28;20053;-85
2021/03/21 01:48:50;;;;;;;12.75;7.13;;;8.80;99.90;;;;;;4976495;28;20051;-85
2021/03/21 01:51:33;;;;;;;16.95;7.93;;;9.00;99.90;;;;;;4975711;28;20054;-85
2021/03/21 01:54:04;;;;;;;11.00;7.50;;;8.80;99.90;;;;;;4996322;28;20050;-85
2021/03/21 01:56:33;;;;;;;11.38;7.00;;;8.80;99.90;;;;;;4963799;28;20054;-85
2021/03/21 01:59:08;;;;;;;12.02;7.70;;;8.80;99.90;;;;;;4972544;28;20046;-85
2021/03/21 02:01:35;;;;;;;10.93;6.72;;;;;;;;;;4963401;28;20046;-84
2021/03/21 02:04:05;;;;;;;14.18;7.10;;;9.30;99.90;;;;;;4994447;28;20073;-85
2021/03/21 02:06:41;;;;;;;13.70;6.88;;;8.70;99.90;;;;;;4976444;28;20050;-84
2021/03/21 02:09:12;;;;;;;12.05;6.75;;;;;;;;;;4958463;28;20059;-86
2021/03/21 02:12:00;;;;;;;8.85;5.80;;;8.80;99.90;;;;;;4963684;28;20062;-85
2021/03/21 02:14:27;;;;;;;11.77;7.55;;;;;;;;;;4994418;28;20058;-85
2021/03/21 02:17:26;;;;;;;13.35;7.15;;;9.00;99.90;;;;;;4991045;28;20058;-84
2021/03/21 02:20:31;;;;;;;11.52;6.93;;;8.80;99.90;;;;;;4984574;28;20055;-85
2021/03/21 02:23:07;;;;;;;15.18;7.53;;;8.70;99.90;;;;;;4970381;28;20050;-85
2021/03/21 02:26:11;;;;;;;12.93;6.88;;;8.80;99.90;;;;;;4972362;28;20066;-84
2021/03/21 02:29:18;;;;;;;20.20;8.52;;;8.70;99.90;;;;;;4939336;28;20070;-84
2021/03/21 02:31:51;;;;;;;11.43;6.53;;;8.80;99.90;;;;;;4965387;28;20051;-84
2021/03/21 02:35:17;;;;;;;13.13;7.32;;;8.70;99.90;;;;;;4953105;28;20053;-83
2021/03/21 02:37:46;;;;;;;14.73;6.93;;;;;;;;;;4894561;29;20060;-85
2021/03/21 02:40:18;;;;;;;12.00;6.63;;;8.70;99.90;;;;;;4958656;28;20062;-84
2021/03/21 02:43:00;;;;;;;12.30;6.55;;;8.90;99.90;;;;;;4973235;28;20398;-84
2021/03/21 02:45:31;;;;;;;13.68;7.82;;;8.70;99.90;;;;;;4987633;28;20581;-84
2021/03/21 02:48:20;;;;;;;15.63;6.85;;;8.70;99.90;;;;;;4990536;28;20050;-84
2021/03/21 02:50:52;;;;;;;11.95;6.35;;;6.50;99.90;;;;;;4973608;28;20073;-84
2021/03/21 02:53:38;;;;;;;14.45;7.18;;;8.70;99.90;;;;;;4958291;28;20046;-86
2021/03/21 02:56:11;;;;;;;9.30;6.28;;;8.70;99.90;;;;;;4955753;28;20055;-84
2021/03/21 02:58:59;;;;;;;10.77;6.88;;;8.70;99.90;;;;;;4965705;28;20414;-85
2021/03/21 03:01:30;;;;;;;11.60;6.55;;;8.60;99.90;;;;;;4973703;28;20240;-86
2021/03/21 03:04:02;;;;;;;13.82;7.18;;;8.70;99.90;;;;;;4957938;28;20065;-85
2021/03/21 03:06:45;;;;;;;7.60;5.18;;;8.60;99.90;;;;;;4989812;28;20043;-85
2021/03/21 03:09:19;;;;;;;9.10;6.35;;;8.50;99.90;;;;;;4973741;28;20409;-86
2021/03/21 03:11:53;;;;;;;9.93;6.82;;;8.60;99.90;;;;;;4953315;28;20062;-86
2021/03/21 03:14:25;;;;;;;12.07;6.63;;;8.80;99.90;;;;;;4954034;28;20057;-85
2021/03/21 03:16:58;;;;;;;10.73;6.55;;;8.60;99.90;;;;;;4973942;28;20414;-84
2021/03/21 03:19:54;;;;;;;14.80;6.03;;;8.60;99.90;;;;;;4964453;28;20046;-85
2021/03/21 03:22:41;;;;;;;10.98;6.25;;;8.50;99.90;;;;;;4974009;28;20046;-84
2021/03/21 03:25:21;;;;;;;12.50;6.53;;;8.40;99.90;;;;;;4974214;28;20593;-84
2021/03/21 03:28:05;;;;;;;9.38;6.28;;;8.40;99.90;;;;;;4990631;28;20054;-83
2021/03/21 03:30:48;;;;;;;12.65;6.78;;;8.40;99.90;;;;;;4956077;28;20055;-84
2021/03/21 03:33:15;;;;;;;13.05;8.05;;;;;;;;;;4967075;28;20042;-85
2021/03/21 03:35:43;;;;;;;11.18;6.60;;;;;;;;;;4971063;28;20050;-86
2021/03/21 03:38:12;;;;;;;11.40;6.63;;;8.30;99.90;;;;;;4967498;28;20054;-84
2021/03/21 03:40:42;;;;;;;7.28;5.43;;;8.30;99.90;;;;;;4982098;28;20080;-86
2021/03/21 03:43:28;;;;;;;9.10;5.35;;;8.10;99.90;;;;;;4976436;28;20050;-85
2021/03/21 03:45:55;;;;;;;10.18;5.93;;;;;;;;;;4959263;28;20491;-85
2021/03/21 03:48:44;;;;;;;14.68;6.10;;;8.20;99.90;;;;;;4973516;28;20051;-86
2021/03/21 03:51:32;;;;;;;9.45;5.55;;;8.10;99.90;;;;;;4975156;28;20167;-85
2021/03/21 03:54:05;;;;;;;9.20;5.53;;;8.40;99.90;;;;;;4999486;28;20050;-85
2021/03/21 03:56:51;;;;;;;8.50;5.35;;;8.00;99.90;;;;;;4997772;28;20153;-85
2021/03/21 03:59:40;;;;;;;17.50;7.15;;;8.10;99.90;;;;;;4939498;28;20062;-84
2021/03/21 04:02:11;;;;;;;8.88;5.78;;;8.10;99.90;;;;;;4975970;28;20049;-85
2021/03/21 04:04:50;;;;;;;8.40;6.15;;;8.20;99.90;;;;;;4958874;28;20393;-85
2021/03/21 04:07:40;;;;;;;11.20;6.35;;;8.30;99.90;;;;;;4998587;28;20046;-84
2021/03/21 04:10:08;;;;;;;14.93;4.95;;;;;;;;;;4970771;28;20430;-84
2021/03/21 04:12:54;;;;;;;8.98;6.53;;;8.00;99.90;;;;;;4958861;28;20054;-83
2021/03/21 04:15:29;;;;;;;9.23;5.40;;;8.10;99.90;;;;;;4997217;28;20042;-85
2021/03/21 04:18:09;;;;;;;9.48;5.35;;;7.80;99.90;;;;;;4966705;28;20438;-85
2021/03/21 04:20:44;;;;;;;11.93;5.93;;;8.10;99.90;;;;;;4960767;28;20050;-85
2021/03/21 04:23:17;;;;;;;13.73;6.43;;;8.10;99.90;;;;;;4971776;28;20541;-83
2021/03/21 04:25:55;;;;;;;9.82;5.80;;;8.10;99.90;;;;;;4977930;28;20401;-84
2021/03/21 04:28:34;;;;;;;9.98;5.78;;;8.40;99.90;;;;;;4990603;28;20061;-84
2021/03/21 04:31:07;;;;;;;11.10;5.63;;;8.10;99.90;;;;;;4982952;28;20406;-85
2021/03/21 04:33:58;;;;;;;9.95;6.43;;;8.10;99.90;;;;;;4978899;28;20065;-84
2021/03/21 04:36:29;;;;;;;18.67;5.17;;;8.10;99.90;;;;;;4958308;28;20050;-85
2021/03/21 04:39:22;;;;;;;9.77;6.03;;;8.10;99.90;;;;;;4973934;28;20057;-84
2021/03/21 04:42:00;;;;;;;16.55;6.60;;;8.30;99.90;;;;;;4959905;28;20510;-84
2021/03/21 04:44:38;;;;;;;12.48;6.38;;;8.10;99.90;;;;;;4969812;28;20077;-86
2021/03/21 04:47:50;;;;;;;9.40;5.25;;;8.10;99.90;;;;;;4994959;28;20069;-85
2021/03/21 04:50:18;;;;;;;10.20;6.10;;;8.00;99.90;;;;;;4953971;28;20069;-85
2021/03/21 04:52:54;;;;;;;13.00;5.82;;;8.10;99.90;;;;;;4979310;28;20050;-85
2021/03/21 04:55:46;;;;;;;14.88;6.88;;;8.10;99.90;;;;;;4977255;28;20543;-85
2021/03/21 04:58:34;;;;;;;7.03;4.78;;;8.10;99.90;;;;;;4935068;28;20054;-86
2021/03/21 05:01:07;;;;;;;10.07;6.03;;;10.50;99.90;;;;;;4987910;28;20058;-86
2021/03/21 05:03:43;;;;;;;7.78;4.90;;;8.20;99.90;;;;;;4978631;28;20069;-85
2021/03/21 05:06:19;;;;;;;7.88;5.57;;;7.90;99.90;;;;;;4978093;28;20042;-85
2021/03/21 05:09:11;;;;;;;8.75;5.28;;;8.00;99.90;;;;;;4964931;28;20050;-86
2021/03/21 05:11:40;;;;;;;;;;;8.10;99.90;;;;;;4973799;28;20054;-87
2021/03/21 05:14:22;;;;;;;12.40;6.43;;;8.00;99.90;;;;;;4975426;28;19926;-85
2021/03/21 05:17:19;;;;;;;13.45;6.18;;;8.00;99.90;;;;;;4974634;28;20050;-85
2021/03/21 05:20:08;;;;;;;24.27;6.72;;;7.90;99.90;;;;;;4993272;28;20395;-85
2021/03/21 05:23:24;;;;;;;11.32;6.40;;;9.80;99.90;;;;;;4976127;28;20058;-85
2021/03/21 05:26:09;;;;;;;11.73;5.97;;;8.00;99.90;;;;;;4959803;28;20046;-85
2021/03/21 05:29:06;;;;;;;13.60;5.72;;;7.90;99.90;;;;;;4977354;28;20055;-84
2021/03/21 05:31:33;;;;;;;10.85;5.60;;;;;;;;;;4944429;28;20046;-84
2021/03/21 05:34:02;;;;;;;13.10;6.95;;;;;;;;;;4991606;28;20046;-83
2021/03/21 05:36:50;;;;;;;11.73;5.53;;;7.90;99.90;;;;;;4944320;28;20050;-86
2021/03/21 05:39:48;;;;;;;19.70;7.65;;;8.00;99.90;;;;;;4972884;28;20043;-85
2021/03/21 05:42:15;;;;;;;14.80;7.88;;;;;;;;;;4991456;28;20054;-85
2021/03/21 05:44:43;;;;;;;11.50;6.18;;;;;;;;;;4991585;28;20069;-85
2021/03/21 05:47:31;;;;;;;15.88;7.22;;;8.10;99.90;;;;;;4990454;28;20057;-85
2021/03/21 05:50:05;;;;;;;10.90;8.02;;;8.10;99.90;;;;;;4972897;28;20057;-84
2021/03/21 05:53:04;;;;;;;11.73;7.28;;;8.10;99.90;;;;;;4988398;28;20724;-84
2021/03/21 05:56:08;;;;;;;10.32;6.00;;;8.10;99.90;;;;;;4972582;28;20064;-84
2021/03/21 05:58:57;;;;;;;11.48;6.68;;;8.00;99.90;;;;;;4969479;28;20522;-85
2021/03/21 06:01:25;;;;;;;13.02;7.13;;;;;;;;;;4971946;28;20050;-84
2021/03/21 06:04:17;;;;;;;13.85;8.73;;;8.10;99.90;;;;;;4956420;28;20061;-85
2021/03/21 06:07:14;;;;;;;17.73;8.25;;;8.10;99.90;;;;;;4971070;28;20058;-85
2021/03/21 06:10:12;;;;;;;13.66;7.03;;;8.00;99.90;;;;;;4642685;28;10001832;-85
2021/03/21 06:13:16;;;;;;;12.05;6.35;;;8.10;99.90;;;;;;4961179;28;20046;-85
2021/03/21 06:16:15;;;;;;;12.02;6.30;;;8.20;99.90;;;;;;4972206;28;20058;-84
2021/03/21 06:19:24;;;;;;;17.27;8.98;;;8.20;99.90;;;;;;4968932;28;20509;-85
2021/03/21 06:22:09;;;;;;;13.50;6.55;;;8.20;99.90;;;;;;4957676;28;20069;-85
2021/03/21 06:24:37;;;;;;;11.10;6.20;;;;;;;;;;4954976;28;20714;-85
2021/03/21 06:27:29;;;;;;;20.17;8.38;;;8.20;99.90;;;;;;4962785;28;20045;-85
2021/03/21 06:30:30;;;;;;;14.18;7.32;;;8.10;99.90;;;;;;4972585;28;20042;-84
2021/03/21 06:33:04;;;;;;;17.17;8.52;;;8.20;99.90;;;;;;4986110;28;20054;-85
2021/03/21 06:36:05;;;;;;;11.68;7.30;;;8.20;99.90;;;;;;4998278;28;20039;-85
2021/03/21 06:38:55;;;;;;;17.08;8.63;;;8.20;99.90;;;;;;4995180;28;20279;-84
2021/03/21 06:41:57;;;;;;;12.03;6.50;;;8.20;99.90;;;;;;4987736;28;20453;-83
2021/03/21 06:44:37;;;;;;;14.13;7.35;;;8.30;99.90;;;;;;4985041;28;20054;-85
2021/03/21 06:47:16;;;;;;;11.45;6.22;;;8.30;99.90;;;;;;4983180;28;20050;-85
2021/03/21 06:50:01;;;;;;;11.50;6.47;;;8.60;99.90;;;;;;4979919;28;20065;-86
2021/03/21 06:53:03;;;;;;;13.10;7.00;;;8.40;99.90;;;;;;4998351;28;20064;-84
2021/03/21 06:55:36;;;;;;;15.45;6.95;;;8.30;99.90;;;;;;4989453;28;20042;-84
2021/03/21 06:58:17;;;;;;;20.90;7.18;;;8.30;99.90;;;;;;4979437;28;20062;-84
2021/03/21 07:00:49;;;;;;;10.18;6.43;;;;;;;;;;4980764;28;20057;-84
2021/03/21 07:03:36;;;;;;;16.05;7.75;;;8.20;99.90;;;;;;4999467;28;20050;-83
2021/03/21 07:06:41;;;;;;;14.32;7.35;;;8.50;99.90;;;;;;4981213;28;20051;-86
2021/03/21 07:09:28;;;;;;;14.85;6.63;;;8.50;99.90;;;;;;4970585;28;20061;-85
2021/03/21 07:11:55;;;;;;;12.68;8.07;;;;;;;;;;4972461;28;20046;-84
2021/03/21 07:15:00;;;;;;;17.60;7.10;;;8.40;99.90;;;;;;4996099;28;20057;-85
2021/03/21 07:17:27;;;;;;;12.32;8.00;;;;;;;;;;4988583;28;20046;-85
2021/03/21 07:20:45;;;;;;;12.88;6.43;;;8.60;99.90;;;;;;4975991;28;20054;-84
2021/03/21 07:23:41;;;;;;;13.35;6.78;;;8.60;99.90;;;;;;4935296;28;20514;-85
2021/03/21 07:26:09;;;;;;;15.68;7.40;;;;;;;;;;4958868;28;20050;-85
2021/03/21 07:28:59;;;;;;;14.32;7.07;;;8.70;99.90;;;;;;4978253;28;20641;-84
2021/03/21 07:31:32;;;;;;;14.48;6.80;;;8.70;99.90;;;;;;4972399;28;20042;-85
2021/03/21 07:34:33;;;;;;;12.88;7.43;;;8.70;99.90;;;;;;4971849;28;20042;-85
2021/03/21 07:37:38;;;;;;;12.70;6.45;;;8.70;99.90;;;;;;4945599;28;20485;-85
2021/03/21 07:40:26;;;;;;;14.38;6.78;;;8.70;99.90;;;;;;4987120;28;20053;-85
2021/03/21 07:42:57;;;;;;;26.02;8.10;;;;;;;;;;4972754;28;20042;-85
2021/03/21 07:45:59;;;;;;;13.23;6.00;;;8.80;99.90;;;;;;4990362;28;20057;-85
2021/03/21 07:48:59;;;;;;;12.98;6.80;;;8.80;99.90;;;;;;4990503;28;20410;-84
2021/03/21 07:51:55;;;;;;;14.48;6.55;;;9.00;99.90;;;;;;4977981;28;20482;-85
2021/03/21 07:54:40;;;;;;;11.45;5.70;;;8.80;99.90;;;;;;4972685;28;20622;-85
2021/03/21 07:57:18;;;;;;;14.63;6.82;;;8.60;99.90;;;;;;4978784;28;20054;-85
2021/03/21 07:59:49;;;;;;;12.70;6.63;;;8.80;99.90;;;;;;4973860;28;20050;-85
2021/03/21 08:02:23;;;;;;;15.53;5.97;;;7.40;99.90;;;;;;4995134;28;20061;-86
2021/03/21 08:04:54;;;;;;;16.58;4.90;;;8.80;99.90;;;;;;4978706;28;20061;-85
2021/03/21 08:07:34;;;;;;;11.55;4.15;;;9.00;99.90;;;;;;4975313;28;20536;-85
2021/03/21 08:10:20;;;;;;;12.05;5.05;;;8.60;99.90;;;;;;4966843;28;20057;-85
2021/03/21 08:12:58;;;;;;;14.80;5.25;;;9.00;99.90;;;;;;4966557;28;20042;-83
2021/03/21 08:15:29;;;;;;;13.27;6.10;;;9.00;99.90;;;;;;4955005;28;20046;-85
2021/03/21 08:17:57;;;;;;;11.73;5.38;;;;;;;;;;4988116;28;20058;-84
2021/03/21 08:20:36;;;;;;;12.00;5.00;;;9.40;99.90;;;;;;4939182;28;20061;-83
2021/03/21 08:23:15;;;;;;;12.00;5.97;;;9.30;99.90;;;;;;4946518;28;20402;-84
2021/03/21 08:25:43;;;;;;;13.20;4.78;;;;;;;;;;4984580;28;20063;-85
2021/03/21 08:28:14;;;;;;;14.98;5.65;;;9.40;99.90;;;;;;4964519;28;20057;-87
2021/03/21 08:30:54;;;;;;;18.02;4.60;;;9.50;99.90;;;;;;4931909;28;20051;-85
2021/03/21 08:33:29;;;;;;;16.98;6.05;;;9.40;99.90;;;;;;4968774;28;20065;-84
2021/03/21 08:36:21;;;;;;;22.10;7.00;;;9.60;99.90;;;;;;4957671;28;20425;-84
2021/03/21 08:38:57;;;;;;;10.25;4.03;;;;;;;;;;4949763;28;20050;-84
2021/03/21 08:41:27;;;;;;;10.38;5.60;;;9.60;99.90;;;;;;4991694;28;20482;-83
2021/03/21 08:44:02;;;;;;;16.25;5.18;;;9.70;99.90;;;;;;4957980;28;20055;-84
2021/03/21 08:46:31;;;;;;;12.27;4.57;;;9.70;99.90;;;;;;4957397;28;20057;-84
2021/03/21 08:49:18;;;;;;;9.97;5.30;;;9.70;99.90;;;;;;4962212;28;20054;-86
2021/03/21 08:51:47;;;;;;;12.38;5.82;;;9.70;99.90;;;;;;4953815;28;20046;-86
2021/03/21 08:54:15;;;;;;;10.82;3.47;;;;;;;;;;4979947;28;20050;-85
2021/03/21 08:57:12;;;;;;;12.88;4.00;;;9.80;99.90;;;;;;4995998;28;20601;-84
2021/03/21 08:59:45;;;;;;;16.38;4.32;;;9.80;99.90;;;;;;4971651;28;20065;-85
2021/03/21 09:02:18;;;;;;;12.95;4.28;;;9.80;99.90;;;;;;4970524;28;20057;-85
2021/03/21 09:04:58;;;;;;;13.35;5.30;;;;;;;;;;4987765;28;20635;-85
2021/03/21 09:07:30;;;;;;;17.45;4.50;;;9.80;99.90;;;;;;4955310;28;20047;-85
2021/03/21 09:10:07;;;;;;;21.42;4.82;;;;;;;;;;4971898;28;20054;-85
2021/03/21 09:12:38;;;;;;;17.55;5.18;;;9.80;99.90;;;;;;4953395;28;20054;-86
2021/03/21 09:15:32;;;;;;;10.85;4.07;;;9.90;99.90;;;;;;4957267;28;20065;-84
2021/03/21 09:18:22;;;;;;;16.10;4.95;;;9.90;99.90;;;;;;4979725;28;20058;-86
2021/03/21 09:20:54;;;;;;;21.03;4.53;;;10.20;99.90;;;;;;4969637;28;20055;-84
2021/03/21 09:23:42;;;;;;;15.73;4.35;;;10.00;99.90;;;;;;4955805;28;20296;-84
2021/03/21 09:26:17;;;;;;;16.25;3.78;;;;;;;;;;4983066;28;20054;-85
2021/03/21 09:28:55;;;;;;;13.90;4.40;;;10.10;99.90;;;;;;4974353;28;20046;-84
2021/03/21 09:31:26;;;;;;;18.17;4.13;;;10.00;99.90;;;;;;4972146;28;20517;-84
2021/03/21 09:34:08;;;;;;;;;;;10.20;99.90;;;;;;4961520;28;20055;-87
2021/03/21 09:36:36;;;;;;;15.02;3.92;;;;;;;;;;4990323;28;19936;-86
2021/03/21 09:39:25;;;;;;;16.63;3.88;;;10.40;99.90;;;;;;5012085;28;20056;-85
2021/03/21 09:41:54;;;;;;;18.88;5.97;;;10.40;99.90;;;;;;4972355;28;20053;-85
2021/03/21 09:44:28;;;;;;;11.48;4.55;;;10.40;99.90;;;;;;4971246;28;20058;-85
2021/03/21 09:47:05;;;;;;;20.35;5.68;;;10.50;99.90;;;;;;4974359;28;20057;-84
2021/03/21 09:49:59;;;;;;;15.27;6.25;;;10.40;99.90;;;;;;4991653;28;20050;-84
2021/03/21 09:52:42;;;;;;;19.15;7.15;;;10.40;99.90;;;;;;4974411;28;20051;-86
2021/03/21 09:55:37;;;;;;;21.42;3.88;;;10.30;99.90;;;;;;4973785;28;20058;-85
2021/03/21 09:58:21;;;;;;;13.10;5.47;;;10.20;99.90;;;;;;4970660;28;20062;-85
2021/03/21 10:01:03;;;;;;;35.40;4.47;;;10.20;99.90;;;;;;4933053;28;20051;-85
2021/03/21 10:03:33;;;;;;;20.77;5.47;;;10.20;99.90;;;;;;4974500;28;20073;-85
2021/03/21 10:06:19;;;;;;;13.90;3.60;;;10.40;99.90;;;;;;4964031;28;20066;-84
2021/03/21 10:09:02;;;;;;;14.35;3.13;;;;;;;;;;4959919;28;20046;-85
2021/03/21 10:11:35;;;;;;;20.98;5.20;;;10.40;99.90;;;;;;4956060;28;20049;-84
2021/03/21 10:14:22;;;;;;;17.33;4.35;;;10.40;99.90;;;;;;4977237;28;20062;-84
2021/03/21 10:16:50;;;;;;;23.90;5.18;;;10.50;99.90;;;;;;4972572;28;20478;-87
2021/03/21 10:19:39;;;;;;;20.27;4.50;;;10.70;99.90;;;;;;4965772;28;20081;-85
2021/03/21 10:22:25;;;;;;;19.85;7.10;;;10.50;99.90;;;;;;4942511;28;20054;-85
2021/03/21 10:25:00;;;;;;;14.65;4.72;;;10.70;99.90;;;;;;4989163;28;20062;-86
2021/03/21 10:27:41;;;;;;;15.10;5.07;;;10.60;99.90;;;;;;4964412;28;20046;-84
2021/03/21 10:30:19;;;;;;;26.52;6.47;;;10.70;99.90;;;;;;4969468;28;20046;-84
2021/03/21 10:32:49;;;;;;;13.35;3.42;;;10.40;99.90;;;;;;4966679;28;20034;-85
2021/03/21 10:35:29;;;;;;;24.70;4.05;;;10.80;99.90;;;;;;4967690;28;20054;-85
2021/03/21 10:38:08;;;;;;;16.90;4.55;;;11.00;99.90;;;;;;4959132;28;20042;-83
2021/03/21 10:40:35;;;;;;;27.10;5.70;;;;;;;;;;4996076;28;20046;-85
2021/03/21 10:43:13;;;;;;;11.88;4.00;;;11.10;99.90;;;;;;4958117;28;20371;-86
2021/03/21 10:45:41;;;;;;;15.90;3.95;;;;;;;;;;4978360;28;20054;-85
2021/03/21 10:48:14;;;;;;;12.05;3.70;;;11.20;99.90;;;;;;4971253;28;20540;-87
2021/03/21 10:50:46;;;;;;;12.35;3.92;;;;;;;;;;4970869;28;20771;-84
2021/03/21 10:53:14;;;;;;;15.13;4.13;;;11.30;99.90;;;;;;4968550;28;20375;-85
2021/03/21 10:55:59;;;;;;;14.18;4.50;;;11.20;99.90;;;;;;4990510;28;20058;-84
2021/03/21 10:58:47;;;;;;;10.40;3.78;;;11.20;99.90;;;;;;4955023;28;20038;-85
2021/03/21 11:01:22;;;;;;;12.13;3.85;;;;;;;;;;4976305;28;20054;-85
2021/03/21 11:04:03;;;;;;;16.58;4.55;;;11.20;99.90;;;;;;4938364;28;20047;-85
2021/03/21 11:06:34;;;;;;;13.23;4.00;;;11.20;99.90;;;;;;4983673;28;20411;-86
2021/03/21 11:09:12;;;;;;;12.75;4.30;;;11.20;99.90;;;;;;4967900;28;20050;-84
2021/03/21 11:11:42;;;;;;;13.82;3.70;;;11.30;99.90;;;;;;4980738;28;20058;-86
2021/03/21 11:14:33;;;;;;;;;;;11.40;99.90;;;;;;4969951;28;20072;-87
2021/03/21 11:17:20;;;;;;;14.63;4.47;;;11.40;99.90;;;;;;4952669;28;20373;-86
2021/03/21 11:19:56;;;;;;;13.15;4.00;;;11.20;99.90;;;;;;4970615;28;20061;-86
2021/03/21 11:22:30;;;;;;;19.40;5.57;;;11.50;99.90;;;;;;4973095;28;20050;-85
2021/03/21 11:24:58;;;;;;;17.88;3.85;;;;;;;;;;4966642;28;20047;-85
2021/03/21 11:27:34;;;;;;;13.80;4.03;;;11.60;99.90;;;;;;4970390;28;20061;-83
2021/03/21 11:30:15;;;;;;;12.50;3.65;;;11.70;99.90;;;;;;4986533;28;20054;-86
2021/03/21 11:32:43;;;;;;;18.00;3.67;;;;;;;;;;4960691;28;20062;-85
2021/03/21 11:35:25;;;;;;;12.52;2.97;;;10.30;99.90;;;;;;4950774;28;20054;-85
2021/03/21 11:37:55;;;;;;;20.25;4.53;;;;;;;;;;4962508;28;20059;-85
2021/03/21 11:40:23;;;;;;;12.80;4.28;;;;;;;;;;4975855;28;20065;-87
2021/03/21 11:43:10;;;;;;;9.48;3.33;;;12.20;99.90;;;;;;4958056;28;20248;-87
2021/03/21 11:45:38;;;;;;;15.32;3.58;;;;;;;;;;5000955;28;20268;-87
2021/03/21 11:48:08;;;;;;;19.90;4.22;;;12.40;99.90;;;;;;4965756;28;20050;-87
2021/03/21 11:50:39;;;;;;;18.10;3.85;;;;;;;;;;4980000;28;20085;-85
2021/03/21 11:53:12;;;;;;;11.18;4.05;;;12.50;99.90;;;;;;4969144;28;20054;-86
2021/03/21 11:55:41;;;;;;;10.98;3.25;;;12.60;99.90;;;;;;4975214;28;20053;-86
2021/03/21 11:58:17;;;;;;;12.82;3.45;;;12.60;99.90;;;;;;4970796;28;20062;-84
2021/03/21 12:00:57;;;;;;;9.65;2.95;;;12.80;99.90;;;;;;4981793;28;20066;-86
2021/03/21 12:03:27;;;;;;;6.95;4.03;;;12.90;99.90;;;;;;4956528;28;20054;-85
2021/03/21 12:06:48;;;;;;;25.73;4.68;;;13.00;99.90;;;;;;4957367;28;20480;-86
2021/03/21 12:09:20;;;;;;;12.52;4.03;;;;;;;;;;4978745;28;20058;-86
2021/03/21 12:11:48;;;;;;;18.42;4.90;;;;;;;;;;4958275;28;20078;-86
2021/03/21 12:14:20;;;;;;;13.95;3.75;;;13.20;99.90;;;;;;4956464;28;20054;-87
2021/03/21 12:16:50;;;;;;;13.20;6.00;;;;;;;;;;4989866;28;20537;-84
2021/03/21 12:19:28;;;;;;;10.48;3.00;;;12.80;99.90;;;;;;4939960;28;20042;-86
2021/03/21 12:22:06;;;;;;;13.02;3.97;;;12.80;99.90;;;;;;4985434;28;20057;-87
2021/03/21 12:24:34;;;;;;;21.73;8.13;;;12.80;99.90;;;;;;4971375;28;20052;-85
2021/03/21 12:27:26;;;;;;;16.30;4.25;;;13.00;99.90;;;;;;4980787;28;20050;-85
2021/03/21 12:30:14;;;;;;;11.68;4.45;;;13.20;99.90;;;;;;4975276;28;20046;-87
2021/03/21 12:32:48;;;;;;;11.73;4.47;;;13.40;99.90;;;;;;4973478;28;20085;-86
2021/03/21 12:35:22;;;;;;;12.50;3.10;;;13.50;99.90;;;;;;4990469;28;20050;-87
2021/03/21 12:37:59;;;;;;;14.00;3.10;;;13.40;99.90;;;;;;4960820;28;20058;-87
2021/03/21 12:40:37;;;;;;;8.35;3.03;;;;;;;;;;4972043;28;20132;-88
2021/03/21 12:43:41;;;;;;;17.33;3.13;;;13.80;99.90;;;;;;4975101;28;20415;-88
2021/03/21 12:46:14;;;;;;;10.73;3.17;;;13.80;99.90;;;;;;4593327;28;9999791;-89
2021/03/21 12:48:51;;;;;;;9.50;2.78;;;13.90;99.90;;;;;;4960135;28;20043;-85
2021/03/21 12:51:26;;;;;;;18.02;4.38;;;13.90;99.90;;;;;;4973666;28;20046;-85
2021/03/21 12:53:54;;;;;;;17.80;3.40;;;;;;;;;;4954357;28;20042;-86
2021/03/21 12:56:22;;;;;;;9.98;3.20;;;;;;;;;;4997972;28;20062;-87
2021/03/21 12:58:50;;;;;;;14.38;3.15;;;;;;;;;;4981963;28;20077;-87
2021/03/21 13:01:20;;;;;;;13.52;3.70;;;;;;;;;;4986069;28;20045;-87
2021/03/21 13:03:49;;;;;;;10.43;3.63;;;14.00;99.90;;;;;;4985089;28;20066;-85
2021/03/21 13:06:19;;;;;;;18.58;4.18;;;;;;;;;;4985945;28;20058;-85
2021/03/21 13:08:47;;;;;;;11.70;3.15;;;;;;;;;;4968419;28;20058;-85
2021/03/21 13:11:14;;;;;;;14.88;4.57;;;;;;;;;;4974456;28;20054;-86
2021/03/21 13:13:43;;;;;;;18.02;4.00;;;;;;;;;;4957468;28;20399;-86
2021/03/21 13:16:13;;;;;;;18.05;4.13;;;;;;;;;;4983513;28;20076;-86
2021/03/21 13:18:41;;;;;;;7.50;3.15;;;;;;;;;;4987270;28;20413;-86
2021/03/21 13:21:08;;;;;;;13.18;3.58;;;;;;;;;;4985652;28;20058;-88
2021/03/21 13:23:36;;;;;;;9.20;3.15;;;;;;;;;;4990568;28;20046;-87
2021/03/21 13:26:04;;;;;;;11.52;2.90;;;;;;;;;;4966474;28;20054;-86
2021/03/21 13:28:31;;;;;;;11.98;4.05;;;;;;;;;;4973315;28;20046;-86
2021/03/21 13:31:00;;;;;;;12.82;4.22;;;;;;;;;;4949455;28;20069;-87
2021/03/21 13:33:29;;;;;;;8.48;4.25;;;13.60;99.90;;;;;;4965943;28;20742;-85
2021/03/21 13:35:59;;;;;;;15.05;3.72;;;;;;;;;;4965718;28;20058;-87
2021/03/21 13:38:30;;;;;;;15.63;5.70;;;13.80;99.90;;;;;;4946854;28;20042;-84
2021/03/21 13:40:59;;;;;;;15.57;3.58;;;13.60;99.90;;;;;;4988495;28;20058;-85
2021/03/21 13:43:29;;;;;;;17.20;4.80;;;13.60;99.90;;;;;;4956472;28;20064;-86
2021/03/21 13:45:59;;;;;;;13.90;3.92;;;13.70;99.90;;;;;;4955649;28;20046;-87
2021/03/21 13:48:28;;;;;;;11.93;4.53;;;14.20;99.90;;;;;;4968848;28;20062;-86
2021/03/21 13:50:57;;;;;;;13.43;4.63;;;13.80;99.90;;;;;;4958589;28;20062;-86
2021/03/21 13:53:30;;;;;;;19.15;4.60;;;13.70;99.90;;;;;;4964432;28;20452;-83
2021/03/21 13:56:02;;;;;;;12.77;3.45;;;13.60;99.90;;;;;;4951407;28;20051;-87
2021/03/21 13:58:29;;;;;;;14.57;5.32;;;;;;;;;;4997997;28;20046;-86
2021/03/21 14:00:59;;;;;;;13.30;3.90;;;12.30;99.90;;;;;;4976988;28;20054;-88
2021/03/21 14:03:27;;;;;;;16.08;5.82;;;;;;;;;;4986841;28;20398;-87
2021/03/21 14:05:57;;;;;;;9.05;3.40;;;;;;;;;;4989555;28;20505;-84